Time;durP1;ratioP1;P1;durP2;ratioP2;P2;SDS_P1;SDS_P2;PMS_P1;PMS_P2;Temp;Humidity;BMP_temperature;BMP_pressure;BME280_temperature;BME280_humidity;BME280_pressure;Samples;Min_cycle;Max_cycle;Signal;HPM_P1;HPM_P2
2022/03/29 00:02:21;;;;;;;50.70;45.20;;;;;;;;;;4976621;28;20510;-86
2022/03/29 00:04:48;;;;;;;49.73;44.33;;;;;;;;;;4976929;28;20436;-86
2022/03/29 00:07:17;;;;;;;50.47;45.10;;;;;;;;;;4976114;28;20476;-85
2022/03/29 00:09:44;;;;;;;50.73;45.43;;;;;;;;;;4976386;28;20402;-84
2022/03/29 00:12:11;;;;;;;52.27;46.97;;;;;;;;;;4976475;28;20446;-84
2022/03/29 00:14:39;;;;;;;49.57;44.33;;;;;;;;;;4976667;28;20468;-86
2022/03/29 00:17:06;;;;;;;51.83;46.43;;;;;;;;;;4975445;28;20414;-86
2022/03/29 00:19:34;;;;;;;49.93;44.93;;;;;;;;;;4976013;28;20976;-86
2022/03/29 00:22:01;;;;;;;52.57;47.00;;;;;;;;;;4975909;28;20460;-86
2022/03/29 00:24:30;;;;;;;49.63;44.40;;;;;;;;;;4975863;28;20921;-86
2022/03/29 00:26:58;;;;;;;51.53;46.20;;;;;;;;;;4975973;28;20959;-85
2022/03/29 00:29:25;;;;;;;54.60;48.70;;;;;;;;;;4976442;28;20455;-85
2022/03/29 00:31:53;;;;;;;55.23;49.27;;;;;;;;;;4975959;28;20438;-85
2022/03/29 00:34:20;;;;;;;53.07;47.60;;;;;;;;;;4976397;28;20421;-86
2022/03/29 00:36:47;;;;;;;50.50;45.33;;;;;;;;;;4976044;28;20410;-85
2022/03/29 00:39:15;;;;;;;50.10;45.00;;;;;;;;;;4975837;28;20745;-85
2022/03/29 00:41:43;;;;;;;52.37;46.63;;;;;;;;;;4975896;28;20418;-85
2022/03/29 00:44:11;;;;;;;50.88;45.67;;;;;;;;;;4976436;28;20418;-86
2022/03/29 00:46:39;;;;;;;52.53;47.10;;;;;;;;;;4975707;28;20653;-85
2022/03/29 00:49:07;;;;;;;52.23;46.73;;;;;;;;;;4975890;28;20472;-85
2022/03/29 00:51:35;;;;;;;49.57;44.50;;;;;;;;;;4975828;28;20410;-85
2022/03/29 00:54:02;;;;;;;49.60;44.90;;;;;;;;;;4976070;28;20417;-86
2022/03/29 00:56:29;;;;;;;49.70;44.40;;;;;;;;;;4975406;28;20425;-85
2022/03/29 00:58:58;;;;;;;51.33;45.83;;;;;;;;;;4975574;28;20482;-86
2022/03/29 01:01:26;;;;;;;51.37;45.87;;;;;;;;;;4975466;28;20451;-86
2022/03/29 01:03:53;;;;;;;52.03;46.47;;;;;;;;;;4975639;28;20418;-86
2022/03/29 01:06:20;;;;;;;52.07;46.60;;;;;;;;;;4975436;28;20453;-86
2022/03/29 01:08:48;;;;;;;49.97;44.57;;;;;;;;;;4975299;28;20437;-86
2022/03/29 01:11:15;;;;;;;49.33;44.30;;;;;;;;;;4975526;28;21320;-85
2022/03/29 01:13:43;;;;;;;51.23;45.80;;;;;;;;;;4975300;28;20421;-85
2022/03/29 01:18:57;;;;;;;50.23;45.13;;;;;;;;;;4975139;28;20481;-86
2022/03/29 01:21:26;;;;;;;49.63;44.63;;;;;;;;;;4975053;28;20443;-85
2022/03/29 01:23:55;;;;;;;51.27;45.60;;;;;;;;;;4975014;28;20439;-85
2022/03/29 01:26:23;;;;;;;47.20;42.47;;;;;;;;;;4975050;28;20450;-85
2022/03/29 01:28:50;;;;;;;49.30;44.30;;;;;;;;;;4975034;28;20428;-85
2022/03/29 01:31:18;;;;;;;50.07;44.43;;;;;;;;;;4975086;28;20413;-85
2022/03/29 01:33:46;;;;;;;50.97;45.87;;;;;;;;;;4975068;28;20841;-86
2022/03/29 01:36:13;;;;;;;50.00;45.10;;;;;;;;;;4974842;28;20457;-85
2022/03/29 01:38:40;;;;;;;49.00;44.20;;;;;;;;;;4974586;28;20498;-86
2022/03/29 01:41:09;;;;;;;49.87;44.13;;;;;;;;;;4975053;28;20439;-86
2022/03/29 01:43:37;;;;;;;48.67;43.70;;;;;;;;;;4974711;28;20417;-85
2022/03/29 01:46:04;;;;;;;49.13;44.23;;;;;;;;;;4974895;28;20414;-84
2022/03/29 01:48:32;;;;;;;47.87;42.70;;;;;;;;;;4974872;28;20462;-86
2022/03/29 01:50:59;;;;;;;47.37;42.57;;;;;;;;;;4974838;28;20443;-86
2022/03/29 01:53:27;;;;;;;48.50;43.37;;;;;;;;;;4974921;28;20904;-85
2022/03/29 01:55:58;;;;;;;47.40;42.63;;;;;;;;;;4974340;28;20421;-86
2022/03/29 01:58:29;;;;;;;48.10;43.37;;;;;;;;;;4974631;28;20452;-85
2022/03/29 02:00:56;;;;;;;50.07;44.90;;;;;;;;;;4974996;28;20781;-85
2022/03/29 02:03:24;;;;;;;47.27;42.70;;;;;;;;;;4974876;28;20447;-85
2022/03/29 02:05:51;;;;;;;50.90;43.30;;;;;;;;;;4974188;28;20461;-85
2022/03/29 02:08:18;;;;;;;49.17;44.33;;;;;;;;;;4974313;28;20450;-85
2022/03/29 02:10:46;;;;;;;47.97;43.10;;;;;;;;;;4974448;28;20448;-85
2022/03/29 02:13:14;;;;;;;47.23;42.50;;;;;;;;;;4974527;28;20418;-85
2022/03/29 02:15:43;;;;;;;48.87;43.63;;;;;;;;;;4974696;28;20422;-85
2022/03/29 02:18:10;;;;;;;50.60;45.53;;;;;;;;;;4974750;28;20410;-86
2022/03/29 02:20:37;;;;;;;47.70;42.70;;;;;;;;;;4974692;28;20414;-85
2022/03/29 02:23:06;;;;;;;52.07;46.30;;;;;;;;;;4974312;28;20769;-85
2022/03/29 02:25:34;;;;;;;47.70;43.00;;;;;;;;;;4974504;28;20771;-85
2022/03/29 02:28:01;;;;;;;47.57;42.47;;;;;;;;;;4974580;28;20460;-84
2022/03/29 02:30:29;;;;;;;49.40;44.30;;;;;;;;;;4974586;28;20500;-85
2022/03/29 02:32:57;;;;;;;48.27;43.50;;;;;;;;;;4974815;28;20422;-84
2022/03/29 02:35:25;;;;;;;48.73;43.73;;;;;;;;;;4974662;28;20423;-85
2022/03/29 02:37:52;;;;;;;48.03;43.33;;;;;;;;;;4974153;28;20451;-86
2022/03/29 02:40:20;;;;;;;46.40;41.70;;;;;;;;;;4974686;28;20492;-86
2022/03/29 02:42:48;;;;;;;49.20;44.30;;;;;;;;;;4978398;28;20447;-85
2022/03/29 02:45:16;;;;;;;48.37;43.60;;;;;;;;;;4977904;28;20429;-85
2022/03/29 02:47:43;;;;;;;47.07;42.10;;;;;;;;;;4977989;28;20438;-85
2022/03/29 02:50:13;;;;;;;47.17;42.30;;;;;;;;;;4977780;28;20451;-85
2022/03/29 02:52:44;;;;;;;50.50;45.50;;;;;;;;;;4977740;28;20450;-85
2022/03/29 02:55:12;;;;;;;46.73;41.93;;;;;;;;;;4977705;28;20937;-85
2022/03/29 02:57:39;;;;;;;47.60;42.90;;;;;;;;;;4978056;28;20448;-86
2022/03/29 03:00:07;;;;;;;48.17;43.40;;;;;;;;;;4977648;28;20527;-86
2022/03/29 03:02:35;;;;;;;49.90;44.93;;;;;;;;;;4977874;28;20440;-86
2022/03/29 03:05:03;;;;;;;51.60;46.43;;;;;;;;;;4977767;28;20420;-86
2022/03/29 03:07:32;;;;;;;48.47;43.63;;;;;;;;;;4977708;28;20490;-86
2022/03/29 03:09:59;;;;;;;46.37;41.77;;;;;;;;;;4977907;28;20453;-86
2022/03/29 03:12:26;;;;;;;47.20;42.70;;;;;;;;;;4977385;28;20421;-86
2022/03/29 03:14:54;;;;;;;47.43;42.83;;;;;;;;;;4977501;28;20443;-85
2022/03/29 03:17:21;;;;;;;50.50;45.23;;;;;;;;;;4977842;28;20443;-86
2022/03/29 03:19:49;;;;;;;47.60;42.73;;;;;;;;;;4960240;28;20545;-86
2022/03/29 03:22:17;;;;;;;49.40;44.50;;;;;;;;;;4977165;28;20425;-85
2022/03/29 03:24:45;;;;;;;50.53;45.13;;;;;;;;;;4977376;28;20435;-86
2022/03/29 03:27:13;;;;;;;47.80;42.80;;;;;;;;;;4977247;28;20463;-86
2022/03/29 03:29:40;;;;;;;50.33;45.23;;;;;;;;;;4977363;28;20911;-87
2022/03/29 03:32:08;;;;;;;47.50;42.90;;;;;;;;;;4977601;28;20450;-86
2022/03/29 03:34:36;;;;;;;48.87;43.53;;;;;;;;;;4977386;28;20437;-86
2022/03/29 03:37:04;;;;;;;49.07;44.17;;;;;;;;;;4977286;28;20462;-85
2022/03/29 03:39:32;;;;;;;48.53;43.47;;;;;;;;;;4977003;28;20899;-86
2022/03/29 03:42:01;;;;;;;48.93;44.13;;;;;;;;;;4977381;28;20425;-87
2022/03/29 03:44:28;;;;;;;48.43;43.63;;;;;;;;;;4977240;28;20449;-86
2022/03/29 03:46:56;;;;;;;50.00;45.00;;;;;;;;;;4976561;28;20421;-86
2022/03/29 03:49:23;;;;;;;47.23;42.43;;;;;;;;;;4977053;28;20451;-86
2022/03/29 03:51:51;;;;;;;48.33;43.53;;;;;;;;;;4975886;28;20421;-86
2022/03/29 03:54:18;;;;;;;47.30;42.50;;;;;;;;;;4976768;28;20196;-87
2022/03/29 03:56:46;;;;;;;47.30;42.50;;;;;;;;;;4976780;28;20940;-86
2022/03/29 03:59:14;;;;;;;47.73;42.83;;;;;;;;;;4976711;28;20449;-86
2022/03/29 04:01:42;;;;;;;46.67;41.83;;;;;;;;;;4976571;28;20435;-85
2022/03/29 04:04:09;;;;;;;47.33;42.50;;;;;;;;;;4976708;28;20442;-86
2022/03/29 04:06:36;;;;;;;48.10;43.30;;;;;;;;;;4976256;28;20461;-86
2022/03/29 04:09:04;;;;;;;45.33;40.70;;;;;;;;;;4976051;28;20443;-86
2022/03/29 04:11:32;;;;;;;47.13;42.47;;;;;;;;;;4976663;28;20421;-86
2022/03/29 04:13:59;;;;;;;46.97;42.07;;;;;;;;;;4976643;28;20777;-86
2022/03/29 04:16:28;;;;;;;43.50;39.10;;;;;;;;;;4976507;28;20443;-86
2022/03/29 04:18:55;;;;;;;45.03;40.67;;;;;;;;;;4976445;28;20425;-86
2022/03/29 04:21:23;;;;;;;45.60;41.40;;;;;;;;;;4976426;28;20443;-86
2022/03/29 04:23:50;;;;;;;46.20;41.50;;;;;;;;;;4976261;28;20462;-86
2022/03/29 04:26:17;;;;;;;48.50;43.67;;;;;;;;;;4976002;28;20442;-86
2022/03/29 04:28:45;;;;;;;48.37;43.47;;;;;;;;;;4976249;28;20939;-86
2022/03/29 04:31:12;;;;;;;48.10;43.30;;;;;;;;;;4976037;28;20902;-85
2022/03/29 04:33:43;;;;;;;46.30;41.80;;;;;;;;;;4976104;28;20439;-86
2022/03/29 04:36:11;;;;;;;48.17;43.07;;;;;;;;;;4976459;28;20451;-86
2022/03/29 04:38:38;;;;;;;55.13;46.37;;;;;;;;;;4975970;28;20437;-86
2022/03/29 04:41:05;;;;;;;46.40;41.80;;;;;;;;;;4975845;28;20458;-86
2022/03/29 04:43:33;;;;;;;48.37;43.50;;;;;;;;;;4976129;28;20424;-85
2022/03/29 04:46:02;;;;;;;49.88;44.75;;;;;;;;;;4976355;28;20451;-86
2022/03/29 04:48:29;;;;;;;45.00;40.50;;;;;;;;;;4975828;28;20196;-85
2022/03/29 04:50:58;;;;;;;47.30;42.33;;;;;;;;;;4976192;28;20764;-85
2022/03/29 04:53:25;;;;;;;47.00;42.00;;;;;;;;;;4975889;28;20439;-86
2022/03/29 04:55:52;;;;;;;46.67;41.60;;;;;;;;;;4975853;28;20455;-87
2022/03/29 04:58:21;;;;;;;46.80;42.17;;;;;;;;;;4975471;28;20433;-86
2022/03/29 05:00:48;;;;;;;47.27;42.20;;;;;;;;;;4975637;28;20483;-85
2022/03/29 05:03:16;;;;;;;48.10;43.13;;;;;;;;;;4975675;28;20442;-86
2022/03/29 05:05:43;;;;;;;48.07;42.93;;;;;;;;;;4975236;28;20454;-85
2022/03/29 05:08:12;;;;;;;50.60;45.20;;;;;;;;;;4975724;28;20794;-86
2022/03/29 05:10:40;;;;;;;48.07;43.37;;;;;;;;;;4975984;28;20418;-86
2022/03/29 05:13:09;;;;;;;47.43;42.43;;;;;;;;;;4974930;28;20439;-85
2022/03/29 05:15:36;;;;;;;47.90;43.00;;;;;;;;;;4975303;28;20446;-86
2022/03/29 05:18:04;;;;;;;48.30;43.37;;;;;;;;;;4975171;28;20928;-86
2022/03/29 05:20:31;;;;;;;48.07;43.27;;;;;;;;;;4975435;28;20495;-86
2022/03/29 05:23:00;;;;;;;54.73;43.97;;;;;;;;;;4958137;28;20947;-85
2022/03/29 05:25:29;;;;;;;49.65;44.33;;;;;;;;;;4975007;28;20461;-85
2022/03/29 05:27:57;;;;;;;47.77;43.07;;;;;;;;;;4975435;28;20530;-86
2022/03/29 05:30:25;;;;;;;47.43;42.30;;;;;;;;;;4975052;28;20784;-85
2022/03/29 05:32:57;;;;;;;48.97;43.87;;;;;;;;;;4975072;28;20418;-85
2022/03/29 05:35:26;;;;;;;46.33;41.60;;;;;;;;;;4975497;28;20442;-85
2022/03/29 05:37:53;;;;;;;47.17;42.40;;;;;;;;;;4975207;28;20274;-84
2022/03/29 05:40:20;;;;;;;49.03;43.70;;;;;;;;;;4975299;28;20486;-86
2022/03/29 05:42:49;;;;;;;46.10;41.40;;;;;;;;;;4974894;28;20428;-86
2022/03/29 05:45:17;;;;;;;47.70;42.53;;;;;;;;;;4975208;28;20738;-86
2022/03/29 05:50:29;;;;;;;45.17;40.60;;;;;;;;;;4974994;28;20277;-90
2022/03/29 05:52:57;;;;;;;46.37;41.77;;;;;;;;;;4975271;28;20444;-89
2022/03/29 05:55:24;;;;;;;48.63;42.10;;;;;;;;;;4975208;28;20494;-90
2022/03/29 05:57:53;;;;;;;45.87;41.37;;;;;;;;;;4974809;28;20552;-85
2022/03/29 06:00:23;;;;;;;47.93;42.87;;;;;;;;;;4974281;28;20469;-86
2022/03/29 06:02:51;;;;;;;47.10;42.27;;;;;;;;;;4975040;28;20510;-88
2022/03/29 06:05:18;;;;;;;45.10;40.57;;;;;;;;;;4975593;28;20418;-89
2022/03/29 06:07:45;;;;;;;48.03;42.93;;;;;;;;;;4975390;28;20963;-90
2022/03/29 06:10:13;;;;;;;45.87;41.23;;;;;;;;;;4975348;28;20418;-85
2022/03/29 06:12:40;;;;;;;49.17;43.27;;;;;;;;;;4974678;28;20825;-86
2022/03/29 06:15:10;;;;;;;47.20;42.13;;;;;;;;;;4975090;28;20769;-86
2022/03/29 06:17:37;;;;;;;48.90;43.90;;;;;;;;;;4979223;28;20425;-90
2022/03/29 06:20:06;;;;;;;51.23;45.57;;;;;;;;;;4979471;28;20449;-90
2022/03/29 06:22:34;;;;;;;48.60;43.57;;;;;;;;;;4979125;28;20533;-86
2022/03/29 06:25:01;;;;;;;47.50;42.60;;;;;;;;;;4978477;28;20967;-87
2022/03/29 06:27:28;;;;;;;45.10;40.60;;;;;;;;;;4978958;28;20449;-85
2022/03/29 06:29:57;;;;;;;45.37;40.77;;;;;;;;;;4979163;28;20440;-90
2022/03/29 06:32:26;;;;;;;45.07;40.43;;;;;;;;;;4979489;28;20926;-90
2022/03/29 06:34:53;;;;;;;45.90;41.00;;;;;;;;;;4979107;28;20416;-89
2022/03/29 06:37:21;;;;;;;44.27;39.77;;;;;;;;;;4978897;28;20442;-88
2022/03/29 06:39:48;;;;;;;45.63;41.03;;;;;;;;;;4978999;28;20453;-89
2022/03/29 06:42:18;;;;;;;43.30;39.00;;;;;;;;;;4978654;28;20447;-89
2022/03/29 06:44:45;;;;;;;44.47;39.83;;;;;;;;;;4978738;28;20508;-90
2022/03/29 06:47:13;;;;;;;46.00;41.40;;;;;;;;;;4978585;28;20451;-90
2022/03/29 06:49:42;;;;;;;45.23;40.53;;;;;;;;;;4978736;28;20431;-89
2022/03/29 06:52:10;;;;;;;47.83;42.80;;;;;;;;;;4961156;28;20831;-89
2022/03/29 06:54:38;;;;;;;44.33;39.73;;;;;;;;;;4978371;28;20465;-90
2022/03/29 06:57:06;;;;;;;46.87;42.37;;;;;;;;;;4978822;28;20478;-90
2022/03/29 06:59:33;;;;;;;44.20;39.80;;;;;;;;;;4978662;28;20750;-91
2022/03/29 07:02:01;;;;;;;43.13;38.93;;;;;;;;;;4978729;28;20424;-92
2022/03/29 07:04:28;;;;;;;42.13;38.03;;;;;;;;;;4978442;28;20454;-92
2022/03/29 07:06:57;;;;;;;41.60;37.57;;;;;;;;;;4978129;28;20461;-91
2022/03/29 07:12:09;;;;;;;43.23;38.93;;;;;;;;;;4978342;28;20477;-91
2022/03/29 07:14:37;;;;;;;42.87;38.63;;;;;;;;;;4978401;28;20447;-92
2022/03/29 07:17:10;;;;;;;43.03;38.63;;;;;;;;;;4977506;28;20895;-90
2022/03/29 07:19:37;;;;;;;42.03;38.00;;;;;;;;;;4978436;28;20519;-91
2022/03/29 07:22:06;;;;;;;44.83;40.20;;;;;;;;;;4977941;28;20417;-91
2022/03/29 07:24:33;;;;;;;44.57;40.10;;;;;;;;;;4977882;28;20907;-91
2022/03/29 07:27:01;;;;;;;43.50;39.00;;;;;;;;;;4977706;28;20979;-90
2022/03/29 07:29:29;;;;;;;46.63;42.08;;;;;;;;;;4977896;28;20471;-90
2022/03/29 07:31:56;;;;;;;44.97;40.40;;;;;;;;;;4977763;28;20199;-88
2022/03/29 07:34:24;;;;;;;46.07;41.50;;;;;;;;;;4977977;28;20410;-89
2022/03/29 07:36:52;;;;;;;45.30;40.60;;;;;;;;;;4977850;28;20410;-89
2022/03/29 07:39:21;;;;;;;46.60;41.90;;;;;;;;;;4977850;28;20522;-90
2022/03/29 07:41:48;;;;;;;46.97;42.33;;;;;;;;;;4977453;28;20486;-91
2022/03/29 07:44:17;;;;;;;45.80;41.30;;;;;;;;;;4978128;28;20431;-90
2022/03/29 07:46:45;;;;;;;46.40;41.67;;;;;;;;;;4978308;28;20424;-90
2022/03/29 07:49:12;;;;;;;43.87;39.47;;;;;;;;;;4977286;28;20429;-90
2022/03/29 07:51:40;;;;;;;43.60;39.30;;;;;;;;;;4980320;28;20458;-89
2022/03/29 07:54:07;;;;;;;48.50;43.47;;;;;;;;;;4977652;28;20439;-88
2022/03/29 07:56:36;;;;;;;46.53;41.63;;;;;;;;;;4977411;28;20420;-87
2022/03/29 07:59:04;;;;;;;48.40;43.90;;;;;;;;;;4976886;28;20512;-88
2022/03/29 08:01:31;;;;;;;46.07;41.27;;;;;;;;;;4976858;28;20461;-89
2022/03/29 08:03:58;;;;;;;46.03;41.23;;;;;;;;;;4976948;28;20421;-88
2022/03/29 08:06:26;;;;;;;45.63;41.13;;;;;;;;;;4977201;28;20465;-86
2022/03/29 08:08:54;;;;;;;46.63;41.80;;;;;;;;;;4958178;28;20441;-88
2022/03/29 08:11:22;;;;;;;45.50;41.03;;;;;;;;;;4958046;29;20455;-93
2022/03/29 08:13:53;;;;;;;44.20;39.80;;;;;;;;;;4958753;29;20448;-91
2022/03/29 08:16:21;;;;;;;47.17;42.30;;;;;;;;;;4959729;29;20419;-92
2022/03/29 08:18:48;;;;;;;46.97;42.13;;;;;;;;;;4957777;29;20430;-94
2022/03/29 08:24:01;;;;;;;45.83;41.03;;;;;;;;;;4958099;29;20397;-92
2022/03/29 08:26:28;;;;;;;46.90;42.20;;;;;;;;;;4957672;28;20534;-90
2022/03/29 08:28:57;;;;;;;45.70;40.80;;;;;;;;;;4957960;29;20418;-88
2022/03/29 08:31:25;;;;;;;47.70;42.73;;;;;;;;;;4957167;29;21010;-91
2022/03/29 08:33:52;;;;;;;45.33;41.20;;;;;;;;;;4957874;29;20530;-88
2022/03/29 08:36:21;;;;;;;46.33;41.73;;;;;;;;;;4958994;29;20467;-95
2022/03/29 08:38:49;;;;;;;45.90;41.20;;;;;;;;;;4958700;28;20550;-91
2022/03/29 08:41:16;;;;;;;47.73;42.63;;;;;;;;;;4957162;29;20524;-91
2022/03/29 08:43:44;;;;;;;45.80;41.23;;;;;;;;;;4961530;28;20866;-92
2022/03/29 08:46:13;;;;;;;47.00;42.30;;;;;;;;;;4960125;28;20426;-88
2022/03/29 08:48:42;;;;;;;45.90;41.47;;;;;;;;;;4957235;29;20440;-90
2022/03/29 08:51:11;;;;;;;48.47;43.37;;;;;;;;;;4958488;29;20451;-93
2022/03/29 08:53:38;;;;;;;47.23;41.80;;;;;;;;;;4956941;29;20433;-91
2022/03/29 08:56:06;;;;;;;43.70;39.23;;;;;;;;;;4957098;29;20406;-93
2022/03/29 08:58:34;;;;;;;45.90;41.40;;;;;;;;;;4959077;29;20444;-96
2022/03/29 09:01:01;;;;;;;45.60;40.93;;;;;;;;;;4956685;29;20490;-94
2022/03/29 09:03:30;;;;;;;47.77;43.07;;;;;;;;;;4957181;29;20467;-93
2022/03/29 09:06:07;;;;;;;47.60;42.70;;;;;;;;;;4956799;29;20462;-93
2022/03/29 09:08:43;;;;;;;43.70;39.50;;;;;;;;;;4956521;29;20505;-92
2022/03/29 09:11:12;;;;;;;46.77;41.20;;;;;;;;;;4956830;29;20877;-87
2022/03/29 09:13:40;;;;;;;43.53;39.23;;;;;;;;;;4957147;29;20543;-88
2022/03/29 09:16:10;;;;;;;45.13;40.73;;;;;;;;;;4961774;29;20448;-91
2022/03/29 09:18:54;;;;;;;48.83;43.73;;;;;;;;;;4955906;29;20461;-88
2022/03/29 09:21:24;;;;;;;46.60;42.17;;;;;;;;;;4955042;29;20497;-93
2022/03/29 09:24:05;;;;;;;45.93;41.47;;;;;;;;;;4956805;29;20444;-90
2022/03/29 09:26:33;;;;;;;45.40;40.80;;;;;;;;;;4956436;28;20466;-86
2022/03/29 09:29:01;;;;;;;43.77;39.33;;;;;;;;;;4956877;29;20423;-88
2022/03/29 09:31:29;;;;;;;46.37;41.83;;;;;;;;;;4956416;29;20494;-89
2022/03/29 09:34:11;;;;;;;46.37;41.90;;;;;;;;;;4956309;29;20509;-84
2022/03/29 09:36:44;;;;;;;45.50;41.33;;;;;;;;;;4957334;29;20444;-86
2022/03/29 09:39:30;;;;;;;45.10;40.77;;;;;;;;;;4974047;28;20506;-84
2022/03/29 09:41:59;;;;;;;44.60;40.17;;;;;;;;;;4976470;28;20465;-91
2022/03/29 09:44:34;;;;;;;41.93;38.10;;;;;;;;;;4976081;28;20494;-88
2022/03/29 09:47:04;;;;;;;43.43;39.03;;;;;;;;;;4975757;28;20450;-89
2022/03/29 09:49:31;;;;;;;43.77;39.27;;;;;;;;;;4974713;28;20474;-87
2022/03/29 09:52:11;;;;;;;43.17;38.77;;;;;;;;;;4975418;28;20942;-88
2022/03/29 09:54:38;;;;;;;41.37;37.30;;;;;;;;;;4979436;28;20426;-95
2022/03/29 09:57:05;;;;;;;43.67;39.43;;;;;;;;;;4976880;28;20414;-94
2022/03/29 09:59:33;;;;;;;43.17;39.03;;;;;;;;;;4975747;28;20908;-90
2022/03/29 10:02:01;;;;;;;44.23;39.57;;;;;;;;;;4975538;28;20489;-87
2022/03/29 10:04:29;;;;;;;43.50;39.50;;;;;;;;;;4975803;28;20474;-92
2022/03/29 10:06:57;;;;;;;42.50;38.20;;;;;;;;;;4958069;28;20581;-85
2022/03/29 10:09:29;;;;;;;41.00;37.13;;;;;;;;;;4958762;28;20801;-93
2022/03/29 10:11:57;;;;;;;44.83;40.13;;;;;;;;;;4975081;28;20952;-89
2022/03/29 10:14:25;;;;;;;42.90;38.80;;;;;;;;;;4975655;28;20489;-94
2022/03/29 10:16:54;;;;;;;42.43;38.47;;;;;;;;;;4975939;28;20443;-94
2022/03/29 10:19:22;;;;;;;44.93;40.43;;;;;;;;;;4976091;28;20410;-94
2022/03/29 10:21:50;;;;;;;44.43;39.57;;;;;;;;;;4975593;28;20486;-93
2022/03/29 10:24:18;;;;;;;43.70;39.47;;;;;;;;;;4974785;28;20544;-95
2022/03/29 10:26:48;;;;;;;43.93;39.70;;;;;;;;;;4975499;28;20439;-94
2022/03/29 10:29:16;;;;;;;39.87;36.17;;;;;;;;;;4975949;28;20476;-94
2022/03/29 10:31:50;;;;;;;42.67;38.27;;;;;;;;;;4975420;28;20409;-94
2022/03/29 10:34:19;;;;;;;43.40;39.10;;;;;;;;;;4975308;28;20458;-94
2022/03/29 10:37:03;;;;;;;44.23;39.70;;;;;;;;;;4976042;28;20435;-94
2022/03/29 10:39:41;;;;;;;44.37;39.63;;;;;;;;;;4977221;28;20417;-95
2022/03/29 10:42:24;;;;;;;43.77;39.53;;;;;;;;;;4975867;28;20482;-94
2022/03/29 10:45:03;;;;;;;44.43;40.03;;;;;;;;;;4975648;28;20454;-94
2022/03/29 10:47:31;;;;;;;43.80;39.60;;;;;;;;;;4975760;28;20417;-91
2022/03/29 10:49:59;;;;;;;44.90;40.43;;;;;;;;;;4976423;28;20429;-91
2022/03/29 10:52:30;;;;;;;44.10;39.80;;;;;;;;;;4975816;28;20488;-91
2022/03/29 10:55:12;;;;;;;44.90;40.63;;;;;;;;;;4975677;28;20435;-91
2022/03/29 10:57:40;;;;;;;42.10;38.30;;;;;;;;;;4974863;28;20446;-91
2022/03/29 11:00:31;;;;;;;44.27;40.07;;;;;;;;;;4977043;28;20425;-90
2022/03/29 11:03:13;;;;;;;45.40;40.73;;;;;;;;;;4980241;28;20508;-92
2022/03/29 11:05:59;;;;;;;42.40;38.00;;;;;;;;;;4979169;28;20441;-91
2022/03/29 11:08:26;;;;;;;45.33;40.77;;;;;;;;;;4982271;28;20442;-92
2022/03/29 11:10:54;;;;;;;43.13;39.03;;;;;;;;;;4982055;28;20445;-91
2022/03/29 11:13:25;;;;;;;43.47;39.40;;;;;;;;;;4979370;28;20417;-91
2022/03/29 11:15:52;;;;;;;43.20;38.97;;;;;;;;;;4979249;28;20808;-91
2022/03/29 11:18:49;;;;;;;45.07;40.67;;;;;;;;;;4979666;28;20436;-89
2022/03/29 11:21:32;;;;;;;43.87;39.97;;;;;;;;;;4980030;28;20533;-91
2022/03/29 11:24:00;;;;;;;42.57;38.67;;;;;;;;;;4980301;28;20557;-91
2022/03/29 11:26:27;;;;;;;42.40;38.60;;;;;;;;;;4978960;28;20447;-91
2022/03/29 11:28:56;;;;;;;45.13;40.80;;;;;;;;;;4978594;28;20917;-91
2022/03/29 11:31:25;;;;;;;42.20;38.13;;;;;;;;;;4978448;28;20783;-92
2022/03/29 11:33:56;;;;;;;46.00;41.20;;;;;;;;;;4961561;28;20453;-91
2022/03/29 11:36:24;;;;;;;46.93;42.63;;;;;;;;;;4978239;28;20450;-91
2022/03/29 11:38:53;;;;;;;45.60;41.10;;;;;;;;;;4978019;28;20425;-91
2022/03/29 11:41:21;;;;;;;44.70;40.10;;;;;;;;;;4978021;28;20803;-92
2022/03/29 11:43:52;;;;;;;43.80;39.60;;;;;;;;;;4977812;28;20443;-91
2022/03/29 11:46:19;;;;;;;43.57;39.33;;;;;;;;;;4977510;28;20440;-91
2022/03/29 11:48:49;;;;;;;44.80;40.60;;;;;;;;;;4960768;28;20444;-91
2022/03/29 11:51:17;;;;;;;45.07;40.70;;;;;;;;;;4977929;28;20451;-91
2022/03/29 11:53:44;;;;;;;44.37;40.37;;;;;;;;;;4977403;28;20458;-91
2022/03/29 11:56:15;;;;;;;44.90;40.60;;;;;;;;;;4960487;28;20523;-92
2022/03/29 11:58:43;;;;;;;41.77;37.93;;;;;;;;;;4977820;28;20417;-91
2022/03/29 12:01:12;;;;;;;43.80;39.70;;;;;;;;;;4977312;28;20930;-91
2022/03/29 12:03:40;;;;;;;43.93;39.77;;;;;;;;;;4977473;28;20443;-91
2022/03/29 12:06:13;;;;;;;44.07;40.03;;;;;;;;;;4976949;28;20485;-91
2022/03/29 12:08:47;;;;;;;44.47;40.00;;;;;;;;;;4977104;28;20447;-91
2022/03/29 12:11:16;;;;;;;41.77;37.67;;;;;;;;;;4977814;28;21051;-91
2022/03/29 12:13:45;;;;;;;43.50;39.20;;;;;;;;;;4977364;28;20478;-92
2022/03/29 12:16:19;;;;;;;42.73;38.30;;;;;;;;;;4977208;28;20420;-91
2022/03/29 12:18:47;;;;;;;44.30;39.80;;;;;;;;;;4977517;28;20413;-92
2022/03/29 12:21:15;;;;;;;47.90;40.80;;;;;;;;;;4976902;28;20439;-91
2022/03/29 12:23:43;;;;;;;45.90;41.20;;;;;;;;;;4977265;28;20418;-92
2022/03/29 12:26:11;;;;;;;47.60;43.10;;;;;;;;;;4977212;28;20765;-91
2022/03/29 12:28:42;;;;;;;44.60;40.33;;;;;;;;;;4977200;28;20402;-92
2022/03/29 12:31:12;;;;;;;46.97;42.47;;;;;;;;;;4978129;28;20899;-92
2022/03/29 12:33:41;;;;;;;42.90;38.40;;;;;;;;;;4982735;28;20436;-91
2022/03/29 12:36:10;;;;;;;44.87;40.60;;;;;;;;;;4994241;28;20409;-92
2022/03/29 12:38:41;;;;;;;42.97;38.77;;;;;;;;;;4994824;28;20478;-91
2022/03/29 12:41:08;;;;;;;42.83;38.60;;;;;;;;;;4994768;28;20432;-91
2022/03/29 12:43:36;;;;;;;45.30;40.80;;;;;;;;;;4995411;28;20465;-90
2022/03/29 12:46:10;;;;;;;44.27;39.87;;;;;;;;;;4995271;28;20415;-91
2022/03/29 12:48:39;;;;;;;45.37;40.87;;;;;;;;;;4987269;28;20500;-91
2022/03/29 12:51:07;;;;;;;45.60;41.27;;;;;;;;;;4977144;28;20892;-91
2022/03/29 12:53:35;;;;;;;42.57;38.47;;;;;;;;;;4977129;28;20433;-91
2022/03/29 12:56:09;;;;;;;42.77;38.73;;;;;;;;;;4977659;28;20892;-91
2022/03/29 12:58:38;;;;;;;44.47;39.80;;;;;;;;;;4982539;28;20436;-91
2022/03/29 13:01:07;;;;;;;46.33;41.50;;;;;;;;;;4977534;28;20443;-91
2022/03/29 13:03:47;;;;;;;44.43;39.90;;;;;;;;;;4976259;28;20543;-92
2022/03/29 13:06:15;;;;;;;44.17;39.77;;;;;;;;;;4977258;28;20468;-92
2022/03/29 13:08:42;;;;;;;43.50;39.33;;;;;;;;;;4977119;28;20436;-91
2022/03/29 13:11:17;;;;;;;43.47;39.47;;;;;;;;;;4976824;28;20443;-91
2022/03/29 13:13:44;;;;;;;42.53;38.50;;;;;;;;;;4976152;28;20417;-91
2022/03/29 13:16:21;;;;;;;42.50;38.40;;;;;;;;;;4976486;28;20447;-91
2022/03/29 13:18:53;;;;;;;44.30;39.90;;;;;;;;;;4976275;28;20441;-91
2022/03/29 13:21:21;;;;;;;44.83;40.40;;;;;;;;;;4976026;28;20431;-91
2022/03/29 13:23:49;;;;;;;45.30;40.70;;;;;;;;;;4975931;28;20453;-90
2022/03/29 13:26:17;;;;;;;44.73;39.97;;;;;;;;;;4976512;28;20788;-91
2022/03/29 13:28:46;;;;;;;45.27;40.77;;;;;;;;;;4976027;28;20420;-91
2022/03/29 13:31:15;;;;;;;45.57;41.03;;;;;;;;;;4976050;28;20441;-91
2022/03/29 13:33:43;;;;;;;46.03;41.53;;;;;;;;;;4975826;28;20430;-91
2022/03/29 13:36:12;;;;;;;43.23;39.13;;;;;;;;;;4976142;28;20455;-91
2022/03/29 13:38:40;;;;;;;44.33;40.37;;;;;;;;;;4975938;28;20436;-92
2022/03/29 13:41:08;;;;;;;44.03;39.67;;;;;;;;;;4976022;28;20447;-91
2022/03/29 13:43:36;;;;;;;45.70;41.50;;;;;;;;;;4975945;28;20472;-91
2022/03/29 13:46:04;;;;;;;45.03;41.03;;;;;;;;;;4975915;28;20836;-94
2022/03/29 13:48:32;;;;;;;45.27;41.03;;;;;;;;;;4976013;28;20418;-94
2022/03/29 13:50:59;;;;;;;44.93;40.60;;;;;;;;;;4975465;28;20548;-94
2022/03/29 13:53:28;;;;;;;46.63;42.43;;;;;;;;;;4975818;28;20454;-94
2022/03/29 13:55:55;;;;;;;44.97;40.77;;;;;;;;;;4975424;28;20795;-94
2022/03/29 13:58:23;;;;;;;43.77;39.47;;;;;;;;;;4975675;28;20441;-94
2022/03/29 14:00:51;;;;;;;41.80;37.70;;;;;;;;;;4975621;28;20417;-94
2022/03/29 14:03:19;;;;;;;43.33;39.27;;;;;;;;;;4975795;28;20464;-95
2022/03/29 14:05:47;;;;;;;44.00;39.97;;;;;;;;;;4975438;28;20421;-94
2022/03/29 14:08:15;;;;;;;43.93;39.33;;;;;;;;;;4975642;28;20464;-93
2022/03/29 14:10:44;;;;;;;45.97;41.37;;;;;;;;;;4975873;28;20439;-93
2022/03/29 14:13:12;;;;;;;45.00;40.30;;;;;;;;;;4975109;28;20445;-94
2022/03/29 14:15:41;;;;;;;44.53;40.03;;;;;;;;;;4975307;28;20442;-94
2022/03/29 14:18:09;;;;;;;46.17;41.83;;;;;;;;;;4975296;28;20413;-93
2022/03/29 14:20:38;;;;;;;44.80;40.17;;;;;;;;;;4975149;28;20505;-93
2022/03/29 14:23:06;;;;;;;46.43;41.60;;;;;;;;;;4975142;28;20485;-94
2022/03/29 14:25:36;;;;;;;45.80;41.10;;;;;;;;;;4958303;28;20434;-94
2022/03/29 14:28:06;;;;;;;47.03;42.80;;;;;;;;;;4975235;28;20935;-93
2022/03/29 14:30:34;;;;;;;47.23;42.67;;;;;;;;;;4975322;28;20418;-94
2022/03/29 14:33:01;;;;;;;46.67;41.90;;;;;;;;;;4975233;28;20919;-94
2022/03/29 14:35:29;;;;;;;45.87;41.43;;;;;;;;;;4975565;28;20410;-94
2022/03/29 14:37:56;;;;;;;42.63;38.83;;;;;;;;;;4978584;28;20438;-94